Time;durP1;ratioP1;P1;durP2;ratioP2;P2;SDS_P1;SDS_P2;PMS_P1;PMS_P2;Temp;Humidity;BMP_temperature;BMP_pressure;BME280_temperature;BME280_humidity;BME280_pressure;Samples;Min_cycle;Max_cycle;Signal;HPM_P1;HPM_P2
2022/01/28 00:02:12;;;;;;;28.27;12.47;;;1.20;99.90;;;;;;4460330;28;656374;-75
2022/01/28 00:04:59;;;;;;;16.83;7.90;;;1.30;99.90;;;;;;4463297;28;656766;-72
2022/01/28 00:07:47;;;;;;;22.93;11.70;;;1.30;99.90;;;;;;4462957;28;656280;-74
2022/01/28 00:10:38;;;;;;;25.43;11.40;;;1.30;99.90;;;;;;4482427;28;656699;-75
2022/01/28 00:13:31;;;;;;;24.83;11.33;;;1.30;99.90;;;;;;4458935;28;657013;-74
2022/01/28 00:16:54;;;;;;;17.83;8.60;;;1.30;99.90;;;;;;4457413;28;656927;-72
2022/01/28 00:38:12;;;;;;;19.83;9.73;;;1.30;99.90;;;;;;4462315;27;657294;-74
2022/01/28 00:41:01;;;;;;;19.57;8.73;;;1.30;99.90;;;;;;4463194;27;655916;-74
2022/01/28 00:43:49;;;;;;;25.67;12.67;;;1.40;99.90;;;;;;4463654;27;657060;-74
2022/01/28 00:46:36;;;;;;;26.17;13.07;;;1.40;99.90;;;;;;4466578;27;656746;-74
2022/01/28 00:49:24;;;;;;;26.53;13.63;;;1.40;99.90;;;;;;4489932;27;657034;-75
2022/01/28 00:52:12;;;;;;;24.73;12.93;;;1.40;99.90;;;;;;4466809;27;656657;-76
2022/01/28 00:54:59;;;;;;;22.77;12.17;;;1.40;99.90;;;;;;4503568;27;657179;-76
2022/01/28 00:57:48;;;;;;;20.77;9.97;;;1.40;99.90;;;;;;4483787;27;656599;-76
2022/01/28 01:00:36;;;;;;;26.27;12.87;;;1.40;99.90;;;;;;4493814;27;655467;-76
2022/01/28 01:03:24;;;;;;;21.73;10.20;;;1.50;99.90;;;;;;4507380;27;656963;-74
2022/01/28 01:06:11;;;;;;;27.47;12.70;;;1.50;99.90;;;;;;4484359;27;656218;-73
2022/01/28 01:08:59;;;;;;;23.20;11.40;;;1.40;99.90;;;;;;4506881;27;657286;-76
2022/01/28 01:11:47;;;;;;;23.23;11.57;;;1.40;99.90;;;;;;4484145;27;656889;-73
2022/01/28 01:14:36;;;;;;;19.47;9.23;;;1.50;99.90;;;;;;4503400;27;657737;-74
2022/01/28 01:23:34;;;;;;;25.80;11.47;;;1.50;99.90;;;;;;4480150;27;657102;-72
2022/01/28 01:26:29;;;;;;;22.40;9.50;;;1.50;99.90;;;;;;4460861;27;657001;-73
2022/01/28 01:29:19;;;;;;;17.00;8.97;;;1.50;99.90;;;;;;4461635;27;655945;-72
2022/01/28 01:32:13;;;;;;;21.13;9.60;;;1.50;99.90;;;;;;4484217;27;655455;-74
2022/01/28 01:35:01;;;;;;;18.05;8.02;;;1.50;99.90;;;;;;4477350;27;655877;-76
2022/01/28 01:37:49;;;;;;;21.17;9.50;;;1.50;99.90;;;;;;4503772;27;657363;-72
2022/01/28 01:40:43;;;;;;;20.90;8.97;;;1.50;99.90;;;;;;4484617;27;655460;-70
2022/01/28 01:43:44;;;;;;;19.03;8.93;;;1.50;99.90;;;;;;4461310;27;656191;-72
2022/01/28 01:46:47;;;;;;;18.23;8.83;;;1.50;99.90;;;;;;4461936;27;656009;-72
2022/01/28 01:52:41;;;;;;;21.43;10.17;;;1.40;99.90;;;;;;4481252;27;655600;-72
2022/01/28 01:55:28;;;;;;;20.40;9.67;;;1.40;99.90;;;;;;4479972;27;657136;-72
2022/01/28 01:58:17;;;;;;;20.43;9.43;;;1.40;99.90;;;;;;4504128;27;655944;-72
2022/01/28 02:01:05;;;;;;;18.10;8.43;;;1.40;99.90;;;;;;4479049;27;656343;-76
2022/01/28 02:03:52;;;;;;;15.37;7.37;;;1.40;99.90;;;;;;4484342;27;655561;-73
2022/01/28 02:06:41;;;;;;;18.03;8.90;;;1.50;99.90;;;;;;4502915;27;656226;-70
2022/01/28 02:09:29;;;;;;;17.77;7.13;;;1.40;99.90;;;;;;4480427;27;656129;-71
2022/01/28 02:12:16;;;;;;;16.33;7.85;;;1.40;99.90;;;;;;4488892;27;655942;-73
2022/01/28 02:15:05;;;;;;;16.10;7.43;;;1.50;99.90;;;;;;4501800;27;656232;-72
2022/01/28 02:17:52;;;;;;;13.37;7.40;;;1.60;99.90;;;;;;4484653;27;655381;-70
2022/01/28 02:20:43;;;;;;;14.07;7.57;;;1.50;99.90;;;;;;4503420;27;655467;-72
2022/01/28 02:23:31;;;;;;;8.80;4.70;;;1.50;99.90;;;;;;4473730;27;655749;-75
2022/01/28 02:26:19;;;;;;;12.37;6.40;;;1.50;99.90;;;;;;4504130;27;655632;-73
2022/01/28 02:29:11;;;;;;;9.73;5.70;;;1.50;99.90;;;;;;4484091;27;655906;-74
2022/01/28 02:31:59;;;;;;;9.20;4.67;;;1.60;99.90;;;;;;4481246;27;655170;-72
2022/01/28 02:34:46;;;;;;;13.07;6.60;;;1.60;99.90;;;;;;4484266;27;654321;-70
2022/01/28 02:37:35;;;;;;;9.02;5.03;;;1.60;99.90;;;;;;4503771;27;657005;-71
2022/01/28 02:40:23;;;;;;;9.23;4.50;;;1.60;99.90;;;;;;4480896;27;655022;-71
2022/01/28 02:43:26;;;;;;;7.83;4.30;;;1.70;99.90;;;;;;4492665;27;655022;-70
2022/01/28 02:46:17;;;;;;;9.83;5.57;;;1.70;99.90;;;;;;4480579;27;654479;-70
2022/01/28 02:49:07;;;;;;;13.30;6.50;;;1.60;99.90;;;;;;4484925;27;655062;-73
2022/01/28 02:51:57;;;;;;;8.53;4.60;;;1.60;99.90;;;;;;4479737;27;655783;-72
2022/01/28 02:54:49;;;;;;;12.80;5.45;;;1.60;99.90;;;;;;4477659;27;655416;-72
2022/01/28 02:57:40;;;;;;;9.70;5.07;;;1.60;99.90;;;;;;4457598;27;656529;-73
2022/01/28 03:00:27;;;;;;;10.07;4.47;;;1.60;99.90;;;;;;4484695;27;654481;-72
2022/01/28 03:03:15;;;;;;;14.03;5.67;;;1.60;99.90;;;;;;4503144;27;655705;-70
2022/01/28 03:06:02;;;;;;;10.60;5.23;;;1.70;99.90;;;;;;4481821;27;655370;-75
2022/01/28 03:08:56;;;;;;;14.07;6.40;;;1.70;99.90;;;;;;4501405;27;656629;-72
2022/01/28 03:11:57;;;;;;;8.33;4.13;;;1.70;99.90;;;;;;4455808;27;655975;-70
2022/01/28 03:14:59;;;;;;;10.43;4.63;;;1.80;99.90;;;;;;4480606;27;654989;-72
2022/01/28 03:17:54;;;;;;;10.13;5.13;;;1.80;99.90;;;;;;4460359;27;655515;-74
2022/01/28 03:20:54;;;;;;;7.70;4.37;;;1.80;99.90;;;;;;4457255;27;655703;-72
2022/01/28 03:23:42;;;;;;;8.40;4.93;;;1.80;99.90;;;;;;4457166;27;655291;-73
2022/01/28 03:26:29;;;;;;;11.10;5.97;;;1.70;99.90;;;;;;4503271;27;655069;-69
2022/01/28 03:29:18;;;;;;;11.50;5.83;;;1.70;99.90;;;;;;4482764;27;655438;-72
2022/01/28 03:32:07;;;;;;;10.87;5.40;;;1.70;99.90;;;;;;4497174;27;655509;-70
2022/01/28 03:34:55;;;;;;;8.30;4.60;;;1.70;99.90;;;;;;4501980;27;656348;-73
2022/01/28 03:37:42;;;;;;;12.47;5.53;;;1.70;99.90;;;;;;4484238;27;654584;-72
2022/01/28 03:40:33;;;;;;;8.87;4.70;;;1.70;99.90;;;;;;4501567;27;655716;-70
2022/01/28 03:43:20;;;;;;;10.37;5.47;;;1.70;99.90;;;;;;4483952;27;654371;-72
2022/01/28 03:46:09;;;;;;;11.80;5.30;;;1.70;99.90;;;;;;4482893;27;655981;-70
2022/01/28 03:48:57;;;;;;;11.40;5.07;;;1.60;99.90;;;;;;4482440;27;655535;-72
2022/01/28 03:51:45;;;;;;;10.07;4.70;;;1.70;99.90;;;;;;4501801;27;656238;-70
2022/01/28 03:54:32;;;;;;;9.83;4.80;;;1.70;99.90;;;;;;4482843;27;655605;-69
2022/01/28 03:57:20;;;;;;;8.03;4.43;;;1.70;99.90;;;;;;4503478;27;654105;-73
2022/01/28 04:00:08;;;;;;;8.23;4.47;;;1.60;99.90;;;;;;4484736;27;654936;-70
2022/01/28 04:03:05;;;;;;;7.77;4.97;;;1.60;99.90;;;;;;4503420;27;654947;-70
2022/01/28 04:12:04;;;;;;;12.10;5.57;;;1.50;99.90;;;;;;4477770;27;655733;-72
2022/01/28 04:15:06;;;;;;;9.20;5.27;;;1.50;99.90;;;;;;4483725;27;655452;-73
2022/01/28 04:17:53;;;;;;;9.43;4.10;;;1.50;99.90;;;;;;4456575;27;655035;-72
2022/01/28 04:20:42;;;;;;;7.13;3.50;;;1.50;99.90;;;;;;4506716;27;654620;-72
2022/01/28 04:23:30;;;;;;;8.67;5.07;;;1.50;99.90;;;;;;4479700;27;655568;-72
2022/01/28 04:26:17;;;;;;;8.57;4.50;;;1.50;99.90;;;;;;4483998;27;655266;-72
2022/01/28 04:29:06;;;;;;;7.77;3.50;;;1.50;99.90;;;;;;4502999;27;654920;-71
2022/01/28 04:31:53;;;;;;;8.60;4.47;;;1.50;99.90;;;;;;4483777;27;655916;-72
2022/01/28 04:34:41;;;;;;;8.87;3.43;;;1.50;99.90;;;;;;4493167;27;654783;-74
2022/01/28 04:37:38;;;;;;;8.07;3.77;;;1.50;99.90;;;;;;4506849;27;655253;-72
2022/01/28 04:40:28;;;;;;;5.97;3.17;;;1.40;99.90;;;;;;4479716;27;655034;-74
2022/01/28 04:43:22;;;;;;;9.60;4.40;;;1.30;99.90;;;;;;4468053;27;654739;-74
2022/01/28 04:46:16;;;;;;;13.63;4.93;;;1.30;99.90;;;;;;4479619;27;655195;-73
2022/01/28 04:49:09;;;;;;;8.07;4.83;;;1.30;99.90;;;;;;4455394;27;656200;-71
2022/01/28 04:52:15;;;;;;;8.33;4.67;;;1.20;99.90;;;;;;4481892;27;654300;-72
2022/01/28 04:55:14;;;;;;;17.33;4.83;;;1.20;99.90;;;;;;4452499;27;654705;-72
2022/01/28 04:58:15;;;;;;;6.07;3.60;;;1.10;99.90;;;;;;4455141;27;656304;-72
2022/01/28 05:01:22;;;;;;;8.13;3.47;;;1.00;99.90;;;;;;4456503;27;654936;-72
2022/01/28 05:04:35;;;;;;;6.20;3.17;;;0.90;99.90;;;;;;4478963;27;654524;-73
2022/01/28 05:10:55;;;;;;;8.80;4.97;;;1.00;99.90;;;;;;4483475;27;654758;-73
2022/01/28 05:14:15;;;;;;;8.10;3.70;;;0.90;99.90;;;;;;4459669;27;654511;-72
2022/01/28 05:23:17;;;;;;;12.67;4.50;;;0.90;99.90;;;;;;4459122;27;654807;-72
2022/01/28 05:26:36;;;;;;;10.67;5.40;;;0.80;99.90;;;;;;4458849;27;654407;-72
2022/01/28 05:29:24;;;;;;;6.18;3.00;;;0.70;99.90;;;;;;4485481;27;655762;-74
2022/01/28 05:32:11;;;;;;;14.13;5.00;;;0.80;99.90;;;;;;4493880;27;654106;-74
2022/01/28 05:34:59;;;;;;;11.20;5.17;;;0.70;99.90;;;;;;4506081;27;656314;-72
2022/01/28 05:37:47;;;;;;;8.47;4.70;;;0.70;99.90;;;;;;4485252;27;655775;-72
2022/01/28 05:40:34;;;;;;;12.67;4.87;;;0.70;99.90;;;;;;4506471;27;655075;-72
2022/01/28 05:43:23;;;;;;;11.30;4.53;;;0.70;99.90;;;;;;4484182;27;656038;-73
2022/01/28 05:46:12;;;;;;;11.30;4.40;;;0.70;99.90;;;;;;4503459;27;656052;-74
2022/01/28 05:48:59;;;;;;;9.98;4.72;;;0.70;99.90;;;;;;4504978;27;656745;-74
2022/01/28 05:51:47;;;;;;;9.07;3.30;;;0.60;99.90;;;;;;4485528;27;654893;-74
2022/01/28 05:54:34;;;;;;;7.87;3.40;;;0.60;99.90;;;;;;4505120;27;655496;-72
2022/01/28 05:57:22;;;;;;;7.80;4.13;;;0.70;99.90;;;;;;4484720;27;655061;-73
2022/01/28 06:00:13;;;;;;;4.87;3.13;;;0.70;99.90;;;;;;4504409;27;654612;-72
2022/01/28 06:03:00;;;;;;;6.53;3.47;;;0.70;99.90;;;;;;4486383;27;654490;-73
2022/01/28 06:05:48;;;;;;;8.00;4.27;;;0.70;99.90;;;;;;4481727;27;655494;-71
2022/01/28 06:08:36;;;;;;;8.23;4.00;;;0.80;99.90;;;;;;4497323;27;654728;-72
2022/01/28 06:11:24;;;;;;;17.73;4.53;;;0.70;99.90;;;;;;4504811;27;655478;-72
2022/01/28 06:14:12;;;;;;;10.03;5.13;;;0.70;99.90;;;;;;4484937;27;655209;-72
2022/01/28 06:17:01;;;;;;;9.23;4.85;;;0.70;99.90;;;;;;4503815;27;655694;-71
2022/01/28 06:19:48;;;;;;;9.40;5.20;;;0.70;99.90;;;;;;4485882;27;655797;-71
2022/01/28 06:22:39;;;;;;;16.10;5.67;;;0.70;99.90;;;;;;4501009;27;654477;-72
2022/01/28 06:25:26;;;;;;;7.03;3.57;;;0.70;99.90;;;;;;4483980;27;656099;-72
2022/01/28 06:28:14;;;;;;;8.87;4.80;;;0.80;99.90;;;;;;4508194;27;655548;-73
2022/01/28 06:31:02;;;;;;;6.90;4.13;;;0.80;99.90;;;;;;4484540;27;654552;-72
2022/01/28 06:33:51;;;;;;;14.70;5.20;;;0.80;99.90;;;;;;4505883;27;654558;-71
2022/01/28 06:36:38;;;;;;;11.40;5.10;;;0.80;99.90;;;;;;4479970;27;656237;-72
2022/01/28 06:39:26;;;;;;;5.73;3.47;;;0.70;99.90;;;;;;4499167;27;655488;-72
2022/01/28 06:42:14;;;;;;;11.20;5.97;;;0.80;99.90;;;;;;4508209;27;654322;-73
2022/01/28 06:45:01;;;;;;;6.50;3.63;;;0.80;99.90;;;;;;4485069;27;655331;-72
2022/01/28 06:47:49;;;;;;;14.87;6.47;;;0.80;99.90;;;;;;4504771;27;654745;-72
2022/01/28 06:50:38;;;;;;;12.50;5.83;;;0.80;99.90;;;;;;4484319;27;656335;-73
2022/01/28 06:53:25;;;;;;;14.47;6.00;;;0.80;99.90;;;;;;4503664;27;655497;-74
2022/01/28 06:56:13;;;;;;;10.03;5.40;;;0.80;99.90;;;;;;4464379;27;656684;-72
2022/01/28 06:59:00;;;;;;;20.77;7.13;;;0.90;99.90;;;;;;4485571;27;655228;-72
2022/01/28 07:01:48;;;;;;;11.13;4.70;;;0.90;99.90;;;;;;4461932;27;656805;-71
2022/01/28 07:04:36;;;;;;;9.60;4.80;;;0.90;99.90;;;;;;4485487;27;655314;-73
2022/01/28 07:07:25;;;;;;;16.17;7.47;;;0.90;99.90;;;;;;4463730;27;656388;-72
2022/01/28 07:10:13;;;;;;;13.73;5.27;;;0.90;99.90;;;;;;4466195;27;656760;-72
2022/01/28 07:13:00;;;;;;;16.05;6.90;;;1.00;99.90;;;;;;4484966;27;656485;-72
2022/01/28 07:15:51;;;;;;;9.67;4.47;;;1.00;99.90;;;;;;4463007;27;656593;-74
2022/01/28 07:18:39;;;;;;;9.13;4.83;;;1.00;99.90;;;;;;4464385;27;655434;-73
2022/01/28 07:21:26;;;;;;;12.57;4.80;;;1.10;99.90;;;;;;4468447;27;654704;-73
2022/01/28 07:24:15;;;;;;;11.20;4.80;;;1.10;99.90;;;;;;4488212;27;656352;-72
2022/01/28 07:27:03;;;;;;;12.67;5.33;;;1.10;99.90;;;;;;4465351;27;656383;-73
2022/01/28 07:29:51;;;;;;;10.00;4.57;;;1.20;99.90;;;;;;4476793;27;655608;-74
2022/01/28 07:32:39;;;;;;;9.37;4.30;;;1.20;99.90;;;;;;4484804;27;656889;-73
2022/01/28 07:35:27;;;;;;;16.03;4.83;;;1.30;99.90;;;;;;4467385;27;654680;-73
2022/01/28 07:38:15;;;;;;;13.43;4.60;;;1.30;99.90;;;;;;4484558;27;655551;-72
2022/01/28 07:41:05;;;;;;;7.82;2.78;;;1.40;99.90;;;;;;4466358;27;655777;-72
2022/01/28 07:43:52;;;;;;;8.73;3.53;;;1.40;99.90;;;;;;4462517;27;654238;-72
2022/01/28 07:46:40;;;;;;;14.93;3.63;;;1.40;99.90;;;;;;4484091;27;654790;-70
2022/01/28 07:49:28;;;;;;;9.70;2.80;;;1.50;99.90;;;;;;4461155;27;655345;-73
2022/01/28 07:52:16;;;;;;;14.93;4.50;;;1.50;99.90;;;;;;4485241;27;654792;-73
2022/01/28 07:55:04;;;;;;;17.03;3.27;;;1.50;99.90;;;;;;4460629;28;656477;-73
2022/01/28 07:57:53;;;;;;;15.80;4.37;;;1.50;99.90;;;;;;4464691;28;656088;-71
2022/01/28 08:00:42;;;;;;;7.50;3.00;;;1.50;99.90;;;;;;4483674;28;655398;-73
2022/01/28 08:03:29;;;;;;;8.03;3.33;;;1.50;99.90;;;;;;4462088;28;655012;-73
2022/01/28 08:06:17;;;;;;;12.00;3.43;;;1.50;99.90;;;;;;4465692;28;654873;-74
2022/01/28 08:09:04;;;;;;;5.63;2.15;;;1.50;99.90;;;;;;4483940;28;655591;-75
2022/01/28 08:11:52;;;;;;;20.37;4.50;;;1.50;99.90;;;;;;4466057;28;654898;-73
2022/01/28 08:14:41;;;;;;;13.73;3.90;;;1.50;99.90;;;;;;4483875;28;656462;-73
2022/01/28 08:17:28;;;;;;;15.23;4.50;;;1.50;99.90;;;;;;4464914;28;655401;-71
2022/01/28 08:20:16;;;;;;;12.20;3.40;;;1.50;99.90;;;;;;4476333;28;656111;-74
2022/01/28 08:23:04;;;;;;;12.63;4.10;;;1.40;99.90;;;;;;4484530;28;656139;-71
2022/01/28 08:25:54;;;;;;;14.20;4.88;;;1.50;99.90;;;;;;4464913;28;655602;-72
2022/01/28 08:28:42;;;;;;;19.40;5.33;;;1.40;99.90;;;;;;4468198;28;655572;-75
2022/01/28 08:31:32;;;;;;;10.23;4.07;;;1.40;99.90;;;;;;4484177;28;656645;-74
2022/01/28 08:34:19;;;;;;;10.40;3.28;;;1.40;99.90;;;;;;4460944;28;656959;-71
2022/01/28 08:37:07;;;;;;;15.57;5.00;;;1.40;99.90;;;;;;4464598;27;655401;-75
2022/01/28 08:39:54;;;;;;;14.50;4.90;;;1.40;99.90;;;;;;4484000;28;656276;-74
2022/01/28 08:42:42;;;;;;;12.80;4.00;;;1.40;99.90;;;;;;4465237;27;655521;-73
2022/01/28 08:45:30;;;;;;;12.77;3.93;;;1.40;99.90;;;;;;4487567;27;655787;-72
2022/01/28 08:48:19;;;;;;;14.50;4.63;;;1.40;99.90;;;;;;4463764;27;655722;-75
2022/01/28 08:51:06;;;;;;;15.68;4.20;;;1.30;99.90;;;;;;4472611;27;655486;-74
2022/01/28 08:53:54;;;;;;;13.77;3.77;;;1.40;99.90;;;;;;4489802;27;655970;-73
2022/01/28 08:56:42;;;;;;;10.57;4.17;;;1.40;99.90;;;;;;4468796;27;655731;-74
2022/01/28 08:59:30;;;;;;;14.20;4.93;;;1.30;99.90;;;;;;4490309;27;655376;-74
2022/01/28 09:02:18;;;;;;;11.33;4.30;;;1.30;99.90;;;;;;4464770;27;655865;-74
2022/01/28 09:05:07;;;;;;;20.53;6.90;;;1.30;99.90;;;;;;4486619;27;655477;-75
2022/01/28 09:07:55;;;;;;;14.30;5.43;;;1.30;99.90;;;;;;4463352;27;656312;-70
2022/01/28 09:10:45;;;;;;;21.70;6.20;;;1.20;99.90;;;;;;4466933;27;655826;-71
2022/01/28 09:13:37;;;;;;;19.13;6.17;;;1.20;99.90;;;;;;4467834;27;655792;-71
2022/01/28 09:16:25;;;;;;;16.67;6.20;;;1.20;99.90;;;;;;4467461;27;655444;-74
2022/01/28 09:19:12;;;;;;;19.27;6.45;;;1.20;99.90;;;;;;4467766;27;655724;-76
2022/01/28 09:22:01;;;;;;;17.97;6.27;;;1.10;99.90;;;;;;4486753;27;655462;-73
2022/01/28 09:24:49;;;;;;;16.00;6.27;;;1.10;99.90;;;;;;4463034;27;656136;-75
2022/01/28 09:27:37;;;;;;;13.93;5.53;;;1.10;99.90;;;;;;4467082;27;655757;-75
2022/01/28 09:30:24;;;;;;;16.55;7.15;;;1.10;99.90;;;;;;4485457;27;656812;-75
2022/01/28 09:33:12;;;;;;;20.40;7.10;;;1.20;99.90;;;;;;4465234;27;655588;-75
2022/01/28 09:36:00;;;;;;;14.87;5.13;;;1.20;99.90;;;;;;4485899;27;656489;-73
2022/01/28 09:38:49;;;;;;;17.23;6.67;;;1.10;99.90;;;;;;4465521;27;655265;-73
2022/01/28 09:41:37;;;;;;;21.58;6.60;;;1.10;99.90;;;;;;4470732;27;655233;-71
2022/01/28 09:44:24;;;;;;;15.03;5.80;;;1.00;99.90;;;;;;4489307;27;656329;-73
2022/01/28 09:47:12;;;;;;;23.07;7.30;;;1.10;99.90;;;;;;4467137;27;656119;-74
2022/01/28 09:50:00;;;;;;;15.30;6.73;;;1.10;99.90;;;;;;4484045;27;655297;-73
2022/01/28 09:52:48;;;;;;;15.00;6.53;;;1.10;99.90;;;;;;4466643;27;655383;-72
2022/01/28 09:55:37;;;;;;;14.10;4.80;;;1.10;99.90;;;;;;4489977;27;655457;-73
2022/01/28 09:58:25;;;;;;;19.53;7.03;;;1.10;99.90;;;;;;4466988;27;656626;-73
2022/01/28 10:01:12;;;;;;;23.30;8.48;;;1.10;99.90;;;;;;4466847;27;655837;-72
2022/01/28 10:04:02;;;;;;;18.90;7.03;;;1.00;99.90;;;;;;4485475;27;655973;-72
2022/01/28 10:06:50;;;;;;;22.87;8.80;;;1.10;99.90;;;;;;4462612;27;655318;-73
2022/01/28 10:09:38;;;;;;;16.03;7.10;;;1.10;99.90;;;;;;4466987;27;655880;-72
2022/01/28 10:12:34;;;;;;;10.68;5.57;;;1.10;99.90;;;;;;4485161;27;655730;-73
2022/01/28 10:15:29;;;;;;;19.20;7.00;;;1.10;99.90;;;;;;4443424;27;655993;-72
2022/01/28 10:18:17;;;;;;;14.30;6.73;;;1.10;99.90;;;;;;4443423;27;655792;-73
2022/01/28 10:21:15;;;;;;;19.23;6.25;;;1.00;99.90;;;;;;4489593;27;655728;-73
2022/01/28 10:24:06;;;;;;;18.83;7.57;;;1.10;99.90;;;;;;4439878;27;656278;-72
2022/01/28 10:26:54;;;;;;;16.77;6.37;;;1.10;99.90;;;;;;4466753;27;656065;-73
2022/01/28 10:29:44;;;;;;;16.23;6.30;;;1.10;99.90;;;;;;4466524;27;655452;-72
2022/01/28 10:32:32;;;;;;;15.33;6.57;;;1.10;99.90;;;;;;4466270;27;655534;-74
2022/01/28 10:35:31;;;;;;;16.70;5.83;;;1.20;99.90;;;;;;4484597;27;656206;-72
2022/01/28 10:38:29;;;;;;;16.03;5.17;;;1.20;99.90;;;;;;4438967;27;656253;-73
2022/01/28 10:41:17;;;;;;;23.27;7.33;;;1.20;99.90;;;;;;4466225;27;655838;-74
2022/01/28 10:44:05;;;;;;;15.87;6.03;;;1.20;99.90;;;;;;4484705;27;655342;-72
2022/01/28 10:46:59;;;;;;;22.37;7.80;;;1.30;99.90;;;;;;4465908;27;656880;-72
2022/01/28 10:49:47;;;;;;;23.07;7.47;;;1.40;99.90;;;;;;4442865;27;655295;-73
2022/01/28 10:52:34;;;;;;;24.27;7.10;;;1.40;99.90;;;;;;4485545;27;655886;-73
2022/01/28 10:55:22;;;;;;;18.57;6.90;;;1.50;99.90;;;;;;4465675;27;655783;-73
2022/01/28 10:58:10;;;;;;;16.83;7.10;;;1.50;99.90;;;;;;4485803;27;656524;-72
2022/01/28 11:00:59;;;;;;;23.27;7.90;;;1.50;99.90;;;;;;4465501;27;656053;-72
2022/01/28 11:03:48;;;;;;;13.55;4.85;;;1.40;99.90;;;;;;4465809;27;655607;-74
2022/01/28 11:06:35;;;;;;;19.15;6.45;;;1.40;99.90;;;;;;4484149;27;655590;-73
2022/01/28 11:09:24;;;;;;;19.30;6.53;;;1.50;99.90;;;;;;4465321;27;656131;-72
2022/01/28 11:12:12;;;;;;;18.60;6.07;;;1.50;99.90;;;;;;4470419;27;655472;-73
2022/01/28 11:14:59;;;;;;;17.23;6.10;;;1.50;99.90;;;;;;4484126;27;656793;-72
2022/01/28 11:17:47;;;;;;;12.63;5.20;;;1.50;99.90;;;;;;4465261;27;655434;-73
2022/01/28 11:20:37;;;;;;;12.90;5.60;;;1.50;99.90;;;;;;4484358;27;655660;-74
2022/01/28 11:23:29;;;;;;;13.37;5.60;;;1.50;99.90;;;;;;4459982;27;656175;-72
2022/01/28 11:26:18;;;;;;;13.47;5.10;;;1.50;99.90;;;;;;4443179;27;655511;-73
2022/01/28 11:29:12;;;;;;;10.67;4.50;;;1.50;99.90;;;;;;4484652;27;655830;-72
2022/01/28 11:32:13;;;;;;;11.07;4.73;;;1.50;99.90;;;;;;4461214;27;655374;-73
2022/01/28 11:35:02;;;;;;;12.13;5.50;;;1.40;99.90;;;;;;4453348;27;656286;-73
2022/01/28 11:37:53;;;;;;;12.83;5.10;;;1.40;99.90;;;;;;4484225;27;656744;-73
2022/01/28 11:40:45;;;;;;;8.43;4.47;;;1.40;99.90;;;;;;4453510;27;655853;-73
2022/01/28 11:43:33;;;;;;;15.10;7.33;;;1.40;99.90;;;;;;4462003;27;655993;-72
2022/01/28 11:46:24;;;;;;;13.60;5.93;;;1.40;99.90;;;;;;4473792;27;655991;-73
2022/01/28 11:49:22;;;;;;;15.60;6.70;;;1.50;99.90;;;;;;4465026;27;655599;-73
2022/01/28 11:52:22;;;;;;;17.97;6.37;;;1.50;99.90;;;;;;4461047;27;655428;-72
2022/01/28 11:55:35;;;;;;;9.90;5.23;;;1.50;99.90;;;;;;4460906;27;656494;-73
2022/01/28 11:58:23;;;;;;;10.70;5.93;;;1.50;99.90;;;;;;4466137;28;654143;-72
2022/01/28 12:01:10;;;;;;;14.37;6.50;;;1.50;99.90;;;;;;4483612;28;655461;-72
2022/01/28 12:04:34;;;;;;;14.20;5.90;;;1.50;99.90;;;;;;4460735;28;656530;-72
2022/01/28 12:07:24;;;;;;;11.83;6.03;;;1.50;99.90;;;;;;4439501;28;655570;-72
2022/01/28 12:10:11;;;;;;;13.70;6.27;;;1.50;99.90;;;;;;4466485;28;655716;-73
2022/01/28 12:13:02;;;;;;;16.77;7.20;;;1.50;99.90;;;;;;4487330;28;656546;-72
2022/01/28 12:16:13;;;;;;;7.70;3.77;;;1.50;99.90;;;;;;4460941;28;655496;-72
2022/01/28 12:19:02;;;;;;;12.30;6.00;;;1.50;99.90;;;;;;4466204;27;654714;-72
2022/01/28 12:22:06;;;;;;;15.57;7.50;;;1.50;99.90;;;;;;4464492;27;656310;-72
2022/01/28 12:24:53;;;;;;;12.80;5.97;;;1.50;99.90;;;;;;4441150;27;655975;-72
2022/01/28 12:27:41;;;;;;;17.10;7.43;;;1.50;99.90;;;;;;4477102;27;655432;-72
2022/01/28 12:30:36;;;;;;;14.07;5.73;;;1.50;99.90;;;;;;4490590;27;656284;-72
2022/01/28 12:33:24;;;;;;;14.83;7.27;;;1.50;99.90;;;;;;4440401;27;655482;-73
2022/01/28 12:36:13;;;;;;;14.07;5.67;;;1.50;99.90;;;;;;4468112;27;655393;-73
2022/01/28 12:39:10;;;;;;;11.93;6.30;;;1.50;99.90;;;;;;4487052;27;655815;-72
2022/01/28 12:42:05;;;;;;;7.30;4.03;;;1.60;99.90;;;;;;4440682;27;656267;-72
2022/01/28 12:44:53;;;;;;;15.10;6.50;;;1.50;99.90;;;;;;4469360;27;655217;-72
2022/01/28 12:47:42;;;;;;;20.17;7.17;;;1.50;99.90;;;;;;4486991;27;655334;-72
2022/01/28 12:50:32;;;;;;;14.47;6.30;;;1.40;99.90;;;;;;4463275;27;655647;-72
2022/01/28 12:53:36;;;;;;;13.10;6.85;;;1.50;99.90;;;;;;4460746;27;655531;-72
2022/01/28 12:56:30;;;;;;;15.27;6.20;;;1.50;99.90;;;;;;4440273;27;655564;-73
2022/01/28 12:59:18;;;;;;;17.87;6.63;;;1.50;99.90;;;;;;4484461;27;655344;-72
2022/01/28 13:02:06;;;;;;;11.03;5.67;;;1.50;99.90;;;;;;4504835;27;655522;-72
2022/01/28 13:05:12;;;;;;;17.80;7.35;;;1.50;99.90;;;;;;4485502;27;656162;-72
2022/01/28 13:11:16;;;;;;;15.17;6.40;;;1.60;99.90;;;;;;4409468;28;655175;-72
2022/01/28 13:14:03;;;;;;;14.88;6.00;;;1.70;99.90;;;;;;4413449;28;656462;-72
2022/01/28 13:16:51;;;;;;;13.03;6.30;;;1.70;99.90;;;;;;4425772;28;655331;-72
2022/01/28 13:19:39;;;;;;;22.17;6.67;;;1.60;99.90;;;;;;4432408;28;657545;-71
2022/01/28 13:22:29;;;;;;;12.13;4.80;;;1.60;99.90;;;;;;4414030;28;655795;-73
2022/01/28 13:25:18;;;;;;;14.70;5.90;;;1.70;99.90;;;;;;4413695;28;655482;-72
2022/01/28 13:28:12;;;;;;;19.07;6.53;;;1.80;99.90;;;;;;4423355;28;655500;-73
2022/01/28 13:30:59;;;;;;;14.83;6.50;;;1.80;99.90;;;;;;4409045;28;656629;-72
2022/01/28 13:33:47;;;;;;;21.97;6.93;;;1.80;99.90;;;;;;4412773;28;655482;-72
2022/01/28 13:36:47;;;;;;;14.40;5.43;;;1.80;99.90;;;;;;4431413;28;655967;-71
2022/01/28 13:39:42;;;;;;;11.33;4.33;;;1.90;99.90;;;;;;4408435;28;655616;-71
2022/01/28 13:42:29;;;;;;;17.80;6.77;;;1.90;99.90;;;;;;4408312;28;656216;-72
2022/01/28 13:45:17;;;;;;;22.88;6.47;;;1.90;99.90;;;;;;4391853;28;655519;-71
2022/01/28 13:48:06;;;;;;;18.70;6.03;;;1.90;99.90;;;;;;4431176;27;655943;-72
2022/01/28 13:50:54;;;;;;;12.77;4.87;;;1.90;99.90;;;;;;4458056;27;656077;-72
2022/01/28 13:57:00;;;;;;;11.30;4.17;;;1.90;99.90;;;;;;4463576;27;656137;-72
2022/01/28 13:59:47;;;;;;;19.10;5.93;;;1.90;99.90;;;;;;4467287;27;655911;-72
2022/01/28 14:02:40;;;;;;;24.87;6.27;;;1.90;99.90;;;;;;4486423;27;657070;-72
2022/01/28 14:05:50;;;;;;;24.00;6.27;;;1.90;99.90;;;;;;4440311;27;656028;-72
2022/01/28 14:08:39;;;;;;;20.83;6.10;;;1.90;99.90;;;;;;4443597;27;656273;-71
2022/01/28 14:11:31;;;;;;;15.20;6.03;;;1.90;99.90;;;;;;4467115;27;655593;-72
2022/01/28 14:14:23;;;;;;;20.17;6.77;;;1.90;99.90;;;;;;4463504;27;656096;-71
2022/01/28 14:17:11;;;;;;;19.47;5.80;;;1.90;99.90;;;;;;4463298;27;655541;-72
2022/01/28 14:19:58;;;;;;;16.77;6.17;;;1.90;99.90;;;;;;4463026;27;656526;-71
2022/01/28 14:22:46;;;;;;;23.00;6.30;;;1.90;99.90;;;;;;4485825;27;655993;-71
2022/01/28 14:25:33;;;;;;;16.00;5.60;;;1.90;99.90;;;;;;4463386;27;655760;-72
2022/01/28 14:28:37;;;;;;;33.67;6.67;;;1.90;99.90;;;;;;4485394;27;655364;-73
2022/01/28 14:31:27;;;;;;;15.67;5.33;;;1.90;99.90;;;;;;4462674;27;656064;-71
2022/01/28 14:34:14;;;;;;;18.80;5.87;;;1.90;99.90;;;;;;4462877;27;657080;-71
2022/01/28 14:37:03;;;;;;;19.57;5.87;;;1.90;99.90;;;;;;4466617;27;655411;-71
2022/01/28 14:39:51;;;;;;;17.83;5.63;;;2.00;99.90;;;;;;4485869;27;655937;-71
2022/01/28 14:42:39;;;;;;;21.63;5.77;;;1.90;99.90;;;;;;4464992;27;656352;-72
2022/01/28 14:45:27;;;;;;;21.35;6.00;;;1.90;99.90;;;;;;4470439;27;655669;-71
2022/01/28 14:48:20;;;;;;;17.40;5.17;;;1.90;99.90;;;;;;4488496;27;656258;-72
2022/01/28 14:51:10;;;;;;;21.17;6.40;;;1.90;99.90;;;;;;4438401;27;656899;-72
2022/01/28 14:53:57;;;;;;;15.13;5.43;;;1.90;99.90;;;;;;4465108;27;655847;-72
2022/01/28 14:56:45;;;;;;;18.80;5.80;;;1.80;99.90;;;;;;4484742;27;655284;-72
2022/01/28 14:59:32;;;;;;;22.67;6.03;;;1.90;99.90;;;;;;4451507;27;655796;-72
2022/01/28 15:02:24;;;;;;;17.63;6.10;;;1.90;99.90;;;;;;4465835;28;655525;-71
2022/01/28 15:05:14;;;;;;;16.47;4.63;;;1.90;99.90;;;;;;4427617;28;655473;-72
2022/01/28 15:08:07;;;;;;;18.80;5.73;;;1.90;99.90;;;;;;4450318;28;655536;-73
2022/01/28 15:10:56;;;;;;;16.53;5.57;;;1.80;99.90;;;;;;4443486;28;656280;-72
2022/01/28 15:13:44;;;;;;;21.00;5.63;;;1.80;99.90;;;;;;4442739;28;655717;-72
2022/01/28 15:16:31;;;;;;;16.67;5.67;;;1.80;99.90;;;;;;4440364;28;656041;-72
2022/01/28 15:19:19;;;;;;;20.17;6.30;;;1.80;99.90;;;;;;4470200;28;655626;-71
2022/01/28 15:22:08;;;;;;;24.63;7.03;;;1.70;99.90;;;;;;4446262;28;655657;-72
2022/01/28 15:24:56;;;;;;;19.60;6.77;;;1.70;99.90;;;;;;4454740;28;655586;-72
2022/01/28 15:27:46;;;;;;;24.97;6.53;;;1.70;99.90;;;;;;4469234;28;656086;-72